Time;durP1;ratioP1;P1;durP2;ratioP2;P2;SDS_P1;SDS_P2;PMS_P1;PMS_P2;Temp;Humidity;BMP_temperature;BMP_pressure;BME280_temperature;BME280_humidity;BME280_pressure;Samples;Min_cycle;Max_cycle;Signal;HPM_P1;HPM_P2
2022/09/24 00:03:23;;;;;;;42.30;30.40;;;;;13.10;100805.00;;;;13086307;22;20741;-74
2022/09/24 00:08:25;;;;;;;39.80;30.07;;;;;13.10;100799.00;;;;13013704;22;20863;-74
2022/09/24 00:13:26;;;;;;;37.93;28.23;;;;;13.10;100798.00;;;;13089907;22;20167;-74
2022/09/24 00:18:28;;;;;;;34.90;24.90;;;;;13.00;100790.00;;;;13042412;22;20198;-74
2022/09/24 00:23:29;;;;;;;30.57;21.37;;;;;13.00;100794.00;;;;13041747;22;20172;-74
2022/09/24 00:28:31;;;;;;;26.17;18.70;;;;;12.90;100781.00;;;;13064077;22;20187;-74
2022/09/24 00:33:33;;;;;;;21.07;14.73;;;;;12.80;100781.00;;;;13060706;22;20170;-74
2022/09/24 00:38:34;;;;;;;22.07;13.70;;;;;12.80;100771.00;;;;13042055;22;20198;-74
2022/09/24 00:43:37;;;;;;;18.67;14.10;;;;;12.70;100769.00;;;;13041973;22;20246;-74
2022/09/24 00:48:40;;;;;;;18.47;13.27;;;;;12.70;100770.00;;;;13043381;22;20305;-74
2022/09/24 00:53:44;;;;;;;19.17;12.87;;;;;12.70;100771.00;;;;13067185;22;20175;-74
2022/09/24 00:58:51;;;;;;;15.97;12.60;;;;;12.70;100772.00;;;;13043616;22;20796;-74
2022/09/24 01:03:54;;;;;;;16.13;12.87;;;;;12.60;100775.00;;;;13043203;22;20602;-74
2022/09/24 01:08:57;;;;;;;20.23;15.87;;;;;12.60;100766.00;;;;13089975;22;20183;-74
2022/09/24 01:14:20;;;;;;;23.43;17.23;;;;;12.60;100766.00;;;;13116152;22;20221;-74
2022/09/24 01:19:33;;;;;;;20.43;15.50;;;;;12.60;100768.00;;;;13087036;22;20171;-74
2022/09/24 01:25:09;;;;;;;21.40;15.00;;;;;12.60;100740.00;;;;13040901;22;20174;-74
2022/09/24 01:30:14;;;;;;;20.80;15.00;;;;;12.50;100745.00;;;;12992130;22;20195;-74
2022/09/24 01:35:15;;;;;;;22.93;15.63;;;;;12.50;100746.00;;;;13088033;22;20254;-74
2022/09/24 01:40:19;;;;;;;25.07;16.87;;;;;12.50;100736.00;;;;13040774;22;20217;-74
2022/09/24 01:45:21;;;;;;;22.13;16.43;;;;;12.50;100732.00;;;;13061564;22;20614;-74
2022/09/24 01:50:24;;;;;;;23.83;16.93;;;;;12.50;100724.00;;;;13016082;22;20230;-74
2022/09/24 01:55:29;;;;;;;26.70;18.67;;;;;12.50;100720.00;;;;13040984;22;20168;-74
2022/09/24 02:00:30;;;;;;;30.50;20.73;;;;;12.50;100719.00;;;;13015048;22;20270;-74
2022/09/24 02:05:52;;;;;;;28.60;19.80;;;;;12.50;100718.00;;;;13042525;22;20499;-74
2022/09/24 02:11:00;;;;;;;28.50;19.73;;;;;12.50;100713.00;;;;13041863;22;20308;-74
2022/09/24 02:16:04;;;;;;;29.93;20.83;;;;;12.50;100717.00;;;;13062994;22;20486;-74
2022/09/24 02:21:09;;;;;;;31.73;20.83;;;;;12.60;100703.00;;;;13060844;22;20615;-74
2022/09/24 02:26:11;;;;;;;33.07;21.67;;;;;12.60;100708.00;;;;13016835;22;20172;-74
2022/09/24 02:31:27;;;;;;;31.20;21.60;;;;;12.60;100709.00;;;;13014543;22;20203;-74
2022/09/24 02:36:29;;;;;;;34.00;22.27;;;;;12.60;100696.00;;;;13088467;22;20175;-74
2022/09/24 02:41:31;;;;;;;36.47;21.40;;;;;12.50;100701.00;;;;13015341;22;20358;-74
2022/09/24 02:46:32;;;;;;;33.83;21.17;;;;;12.50;100690.00;;;;13061523;22;20202;-74
2022/09/24 02:51:33;;;;;;;29.63;20.33;;;;;12.50;100696.00;;;;13087684;22;20646;-74
2022/09/24 02:56:35;;;;;;;34.50;20.47;;;;;12.50;100690.00;;;;13062905;22;20155;-74
2022/09/24 03:01:36;;;;;;;34.77;22.73;;;;;12.50;100687.00;;;;13062037;22;20257;-74
2022/09/24 03:06:38;;;;;;;31.03;21.20;;;;;12.60;100685.00;;;;13041559;22;20217;-73
2022/09/24 03:11:39;;;;;;;29.57;20.30;;;;;12.60;100679.00;;;;13087951;22;20256;-73
2022/09/24 03:16:40;;;;;;;32.40;19.87;;;;;12.60;100678.00;;;;13066301;22;20856;-74
2022/09/24 03:21:42;;;;;;;28.97;19.10;;;;;12.60;100674.00;;;;13040537;22;20462;-74
2022/09/24 03:26:44;;;;;;;25.73;18.60;;;;;12.60;100670.00;;;;13039928;22;20220;-74
2022/09/24 03:31:45;;;;;;;22.80;17.30;;;;;12.60;100669.00;;;;13066890;22;20281;-74
2022/09/24 03:36:46;;;;;;;24.00;16.93;;;;;12.60;100670.00;;;;13039956;22;20662;-74
2022/09/24 03:41:47;;;;;;;27.17;18.10;;;;;12.60;100665.00;;;;13038007;22;20185;-74
2022/09/24 03:46:49;;;;;;;29.80;20.17;;;;;12.50;100665.00;;;;13013989;22;20198;-74
2022/09/24 03:51:50;;;;;;;35.63;19.97;;;;;12.50;100659.00;;;;13088095;22;20270;-74
2022/09/24 03:56:51;;;;;;;34.80;22.40;;;;;12.50;100645.00;;;;13061687;22;20167;-74
2022/09/24 04:01:52;;;;;;;32.30;21.67;;;;;12.50;100647.00;;;;13065708;22;20191;-74
2022/09/24 04:06:53;;;;;;;35.33;22.77;;;;;12.50;100645.00;;;;13040266;22;20179;-74
2022/09/24 04:11:55;;;;;;;35.03;21.83;;;;;12.40;100639.00;;;;13039176;22;20203;-74
2022/09/24 04:16:57;;;;;;;39.13;21.77;;;;;12.40;100637.00;;;;13014515;22;20168;-74
2022/09/24 04:21:58;;;;;;;38.43;23.07;;;;;12.40;100636.00;;;;13038630;22;20540;-74
2022/09/24 04:27:00;;;;;;;32.73;21.93;;;;;12.40;100630.00;;;;13014132;22;20228;-74
2022/09/24 04:32:02;;;;;;;39.40;22.60;;;;;12.40;100626.00;;;;13038929;22;20214;-74
2022/09/24 04:37:04;;;;;;;34.27;21.60;;;;;12.40;100626.00;;;;13059946;22;21051;-74
2022/09/24 04:42:05;;;;;;;35.73;21.80;;;;;12.40;100623.00;;;;13038641;22;20175;-74
2022/09/24 04:47:07;;;;;;;32.70;22.03;;;;;12.40;100617.00;;;;13039341;22;20577;-74
2022/09/24 04:52:08;;;;;;;37.40;23.57;;;;;12.40;100620.00;;;;13012892;22;20458;-74
2022/09/24 04:57:10;;;;;;;35.27;22.57;;;;;12.40;100622.00;;;;13016963;22;20217;-74
2022/09/24 05:02:11;;;;;;;37.53;22.80;;;;;12.40;100618.00;;;;13090627;22;20171;-74
2022/09/24 05:07:13;;;;;;;36.30;20.87;;;;;12.40;100618.00;;;;13062826;22;20160;-75
2022/09/24 05:12:14;;;;;;;38.60;24.23;;;;;12.50;100622.00;;;;13062838;22;20214;-75
2022/09/24 05:17:15;;;;;;;38.10;22.87;;;;;12.50;100627.00;;;;13042090;22;20455;-75
2022/09/24 05:22:16;;;;;;;39.47;23.50;;;;;12.40;100634.00;;;;13088717;22;20160;-75
2022/09/24 05:27:20;;;;;;;45.03;25.57;;;;;12.40;100628.00;;;;13040924;22;20202;-75
2022/09/24 05:32:21;;;;;;;42.00;24.20;;;;;12.40;100627.00;;;;13062021;22;20645;-75
2022/09/24 05:37:23;;;;;;;39.27;23.97;;;;;12.40;100632.00;;;;13089012;22;20802;-74
2022/09/24 05:42:24;;;;;;;39.97;24.77;;;;;12.40;100621.00;;;;13062498;22;20171;-75
2022/09/24 05:47:25;;;;;;;41.83;24.10;;;;;12.40;100617.00;;;;13041151;22;20167;-75
2022/09/24 05:52:26;;;;;;;42.23;24.17;;;;;12.50;100621.00;;;;13040913;22;20195;-75
2022/09/24 05:57:27;;;;;;;39.20;24.00;;;;;12.50;100624.00;;;;13062847;22;20170;-74
2022/09/24 06:02:28;;;;;;;42.57;24.57;;;;;12.50;100620.00;;;;13087039;22;20168;-74
2022/09/24 06:07:29;;;;;;;40.67;24.30;;;;;12.60;100626.00;;;;13041014;22;20174;-74
2022/09/24 06:12:33;;;;;;;40.70;23.80;;;;;12.60;100629.00;;;;13087549;22;20187;-74
2022/09/24 06:17:34;;;;;;;37.90;22.93;;;;;12.60;100630.00;;;;13067403;22;20256;-74
2022/09/24 06:22:35;;;;;;;43.57;23.70;;;;;12.70;100635.00;;;;13116986;22;20160;-74
2022/09/24 06:27:37;;;;;;;43.87;24.77;;;;;12.80;100633.00;;;;13060833;22;20230;-74
2022/09/24 06:32:38;;;;;;;34.93;22.30;;;;;12.80;100637.00;;;;12989518;22;20248;-74
2022/09/24 06:37:39;;;;;;;36.63;22.93;;;;;12.90;100638.00;;;;13066478;22;20658;-74
2022/09/24 06:42:40;;;;;;;37.33;22.67;;;;;12.90;100641.00;;;;13062175;22;20646;-73
2022/09/24 06:47:41;;;;;;;35.03;22.80;;;;;12.90;100640.00;;;;13016005;22;20638;-73
2022/09/24 06:52:43;;;;;;;38.20;23.03;;;;;13.00;100634.00;;;;13039934;22;20196;-74
2022/09/24 06:57:44;;;;;;;38.40;23.93;;;;;13.00;100641.00;;;;13060751;22;20181;-74
2022/09/24 07:02:50;;;;;;;41.97;24.27;;;;;13.00;100643.00;;;;13087934;22;20371;-74
2022/09/24 07:07:51;;;;;;;38.07;23.87;;;;;13.10;100640.00;;;;13067900;22;20199;-74
2022/09/24 07:12:53;;;;;;;39.57;24.30;;;;;13.10;100649.00;;;;13040377;22;20220;-74
2022/09/24 07:17:56;;;;;;;36.87;23.03;;;;;13.20;100649.00;;;;13039681;22;20686;-74
2022/09/24 07:22:57;;;;;;;38.30;23.07;;;;;13.20;100653.00;;;;13062772;22;20646;-74
2022/09/24 07:28:09;;;;;;;35.43;20.83;;;;;13.20;100651.00;;;;13065534;22;20175;-73
2022/09/24 07:33:10;;;;;;;37.43;22.67;;;;;13.30;100655.00;;;;13114018;22;20696;-73
2022/09/24 07:38:12;;;;;;;38.47;23.33;;;;;13.30;100658.00;;;;13059205;22;20948;-73
2022/09/24 07:43:13;;;;;;;36.23;21.33;;;;;13.40;100654.00;;;;13031523;22;20495;-73
2022/09/24 07:48:15;;;;;;;33.00;20.00;;;;;13.40;100654.00;;;;13014072;22;20175;-73
2022/09/24 07:53:16;;;;;;;33.93;21.10;;;;;13.40;100662.00;;;;13086316;22;20183;-72
2022/09/24 07:58:18;;;;;;;38.20;21.63;;;;;13.40;100655.00;;;;13008516;22;20687;-73
2022/09/24 08:03:19;;;;;;;36.43;22.53;;;;;13.40;100663.00;;;;13035695;22;20209;-73
2022/09/24 08:08:20;;;;;;;36.80;21.60;;;;;13.50;100667.00;;;;13037825;22;20190;-72
2022/09/24 08:13:21;;;;;;;36.10;21.83;;;;;13.50;100655.00;;;;13037974;22;20815;-73
2022/09/24 08:18:30;;;;;;;35.60;21.47;;;;;13.60;100666.00;;;;13084301;22;20658;-72
2022/09/24 08:23:33;;;;;;;34.40;23.20;;;;;13.60;100672.00;;;;13036785;22;20666;-73
2022/09/24 08:28:35;;;;;;;37.93;21.27;;;;;13.70;100666.00;;;;13057558;22;20170;-72
2022/09/24 08:33:37;;;;;;;38.73;23.87;;;;;13.80;100677.00;;;;13061507;22;20263;-73
2022/09/24 08:38:38;;;;;;;32.90;20.43;;;;;13.90;100679.00;;;;13065590;22;20602;-73
2022/09/24 08:43:51;;;;;;;36.17;21.80;;;;;13.90;100687.00;;;;13079762;22;20179;-72
2022/09/24 08:48:53;;;;;;;34.60;23.13;;;;;13.80;100680.00;;;;13060335;22;20179;-72
2022/09/24 08:54:14;;;;;;;34.87;22.13;;;;;13.80;100686.00;;;;13007135;22;20172;-73
2022/09/24 08:59:32;;;;;;;33.80;22.60;;;;;13.80;100690.00;;;;13010610;22;20199;-73
2022/09/24 09:05:00;;;;;;;38.40;21.73;;;;;13.80;100676.00;;;;13065827;22;20523;-73
2022/09/24 09:10:07;;;;;;;36.27;22.07;;;;;13.80;100687.00;;;;13033470;22;20669;-73
2022/09/24 09:15:20;;;;;;;34.50;20.87;;;;;13.80;100689.00;;;;13082440;22;20246;-73
2022/09/24 09:20:30;;;;;;;30.57;19.93;;;;;13.70;100696.00;;;;13057109;22;20167;-73
2022/09/24 09:25:35;;;;;;;33.23;21.07;;;;;13.70;100692.00;;;;13038782;22;20203;-73
2022/09/24 09:30:44;;;;;;;32.43;19.97;;;;;13.70;100697.00;;;;13041202;22;20258;-73
2022/09/24 09:35:57;;;;;;;33.97;21.53;;;;;13.80;100702.00;;;;13041931;22;20199;-74
2022/09/24 09:41:05;;;;;;;32.60;21.73;;;;;14.00;100696.00;;;;13039660;22;20183;-74
2022/09/24 09:46:14;;;;;;;34.30;21.77;;;;;14.10;100704.00;;;;13088028;22;20607;-74
2022/09/24 09:51:18;;;;;;;30.73;21.80;;;;;14.00;100698.00;;;;13041130;22;20722;-75
2022/09/24 09:56:27;;;;;;;39.63;21.50;;;;;14.00;100706.00;;;;13068844;22;20254;-74
2022/09/24 10:01:34;;;;;;;37.50;23.07;;;;;14.00;100715.00;;;;13088844;22;20254;-75
2022/09/24 10:06:35;;;;;;;39.17;22.43;;;;;13.90;100720.00;;;;13093175;22;20765;-75
2022/09/24 10:11:36;;;;;;;31.37;20.80;;;;;13.90;100718.00;;;;13041099;22;20252;-75
2022/09/24 10:16:40;;;;;;;34.27;21.83;;;;;13.90;100713.00;;;;13067684;22;20167;-75
2022/09/24 10:21:41;;;;;;;30.53;19.37;;;;;13.90;100725.00;;;;13015245;22;20199;-75
2022/09/24 10:26:45;;;;;;;27.80;19.67;;;;;14.00;100715.00;;;;13089491;22;20185;-74
2022/09/24 10:31:47;;;;;;;23.13;16.77;;;;;14.20;100706.00;;;;13088577;22;20188;-74
2022/09/24 10:36:51;;;;;;;26.90;16.73;;;;;14.30;100696.00;;;;13090029;22;20163;-74
2022/09/24 10:41:55;;;;;;;25.73;17.40;;;;;14.40;100689.00;;;;13089279;22;20168;-74
2022/09/24 10:47:24;;;;;;;24.23;18.63;;;;;14.30;100695.00;;;;13039354;22;20167;-74
2022/09/24 10:52:55;;;;;;;30.23;19.07;;;;;14.30;100691.00;;;;13042412;22;20192;-74
2022/09/24 10:57:59;;;;;;;27.13;17.93;;;;;14.10;100699.00;;;;13067103;22;20172;-74
2022/09/24 11:03:27;;;;;;;28.43;17.87;;;;;14.00;100701.00;;;;13067279;22;20499;-74
2022/09/24 11:08:38;;;;;;;26.63;18.00;;;;;14.00;100710.00;;;;13039543;22;20221;-74
2022/09/24 11:13:49;;;;;;;23.23;15.67;;;;;13.90;100704.00;;;;13015188;22;20258;-73
2022/09/24 11:19:01;;;;;;;22.73;14.60;;;;;13.80;100712.00;;;;13040925;22;20183;-73
2022/09/24 11:24:23;;;;;;;22.07;14.87;;;;;13.70;100713.00;;;;13088966;22;20221;-74
2022/09/24 11:29:40;;;;;;;25.57;15.97;;;;;13.80;100713.00;;;;13060152;22;20212;-73
2022/09/24 11:35:20;;;;;;;18.07;12.97;;;;;13.90;100708.00;;;;13116315;22;20171;-74
2022/09/24 11:40:47;;;;;;;23.03;16.17;;;;;14.00;100711.00;;;;13066115;22;20182;-74
2022/09/24 11:46:02;;;;;;;23.63;15.83;;;;;13.90;100709.00;;;;13039857;22;20175;-74
2022/09/24 11:51:39;;;;;;;18.40;13.37;;;;;13.90;100712.00;;;;13086105;22;20634;-74
2022/09/24 11:56:46;;;;;;;20.73;14.80;;;;;13.90;100695.00;;;;13038521;22;20195;-74
2022/09/24 12:01:53;;;;;;;20.27;15.00;;;;;13.90;100698.00;;;;13014043;22;20175;-74
2022/09/24 12:07:15;;;;;;;23.33;15.70;;;;;13.90;100692.00;;;;13064147;22;20164;-74
2022/09/24 12:12:26;;;;;;;24.73;15.07;;;;;13.90;100697.00;;;;13089419;22;20187;-74
2022/09/24 12:17:51;;;;;;;23.47;15.17;;;;;13.90;100688.00;;;;13041439;22;20172;-74
2022/09/24 12:22:58;;;;;;;24.23;16.77;;;;;13.80;100690.00;;;;13043246;22;20178;-74
2022/09/24 12:28:00;;;;;;;25.13;16.27;;;;;13.70;100678.00;;;;13042342;22;20171;-74
2022/09/24 12:33:20;;;;;;;26.13;16.50;;;;;13.90;100685.00;;;;13090198;22;20466;-74
2022/09/24 12:38:35;;;;;;;26.00;16.87;;;;;13.90;100683.00;;;;13042227;22;20171;-74
2022/09/24 12:43:46;;;;;;;27.70;17.57;;;;;14.00;100670.00;;;;13063597;22;20241;-74
2022/09/24 12:48:49;;;;;;;26.97;17.30;;;;;14.10;100677.00;;;;13042212;22;20167;-74
2022/09/24 12:53:57;;;;;;;23.93;16.87;;;;;14.20;100680.00;;;;13089995;22;20160;-73
2022/09/24 12:58:58;;;;;;;28.63;18.27;;;;;14.20;100677.00;;;;13041983;22;20256;-73
2022/09/24 13:04:13;;;;;;;23.60;17.57;;;;;14.10;100690.00;;;;13040130;22;20580;-73
2022/09/24 13:09:28;;;;;;;27.97;17.73;;;;;14.00;100684.00;;;;13067233;22;20697;-74
2022/09/24 13:14:32;;;;;;;26.67;17.77;;;;;13.90;100683.00;;;;13042707;22;20174;-74
2022/09/24 13:19:37;;;;;;;26.30;18.17;;;;;14.00;100674.00;;;;13037843;22;20166;-74
2022/09/24 13:24:49;;;;;;;30.30;18.30;;;;;14.10;100669.00;;;;13041867;22;20171;-74
2022/09/24 13:30:11;;;;;;;25.70;19.53;;;;;14.30;100665.00;;;;13041194;22;20215;-74
2022/09/24 13:35:17;;;;;;;32.33;21.47;;;;;14.30;100670.00;;;;13062641;22;20167;-74
2022/09/24 13:40:32;;;;;;;31.73;20.40;;;;;14.20;100672.00;;;;13041231;22;20207;-74
2022/09/24 13:45:40;;;;;;;33.77;22.67;;;;;14.20;100670.00;;;;13063700;22;20175;-74
2022/09/24 13:50:52;;;;;;;36.07;24.23;;;;;14.30;100676.00;;;;13061604;22;20199;-74
2022/09/24 13:55:59;;;;;;;38.23;28.00;;;;;14.80;100669.00;;;;13068413;22;20176;-74
2022/09/24 14:01:28;;;;;;;36.40;27.17;;;;;15.60;100661.00;;;;13041131;22;20175;-73
2022/09/24 14:06:54;;;;;;;33.57;23.73;;;;;15.20;100671.00;;;;12981807;22;20799;-74
2022/09/24 14:12:20;;;;;;;31.00;22.40;;;;;14.80;100668.00;;;;13055466;22;20715;-73
2022/09/24 14:17:22;;;;;;;32.95;24.23;;;;;14.50;100673.00;;;;13089215;22;20183;-73
2022/09/24 14:22:33;;;;;;;35.80;25.93;;;;;14.40;100682.00;;;;13015769;22;20163;-74
2022/09/24 14:27:48;;;;;;;37.83;28.47;;;;;14.30;100677.00;;;;13088194;22;20567;-73
2022/09/24 14:32:56;;;;;;;38.60;27.53;;;;;14.20;100680.00;;;;13088889;22;20187;-73
2022/09/24 14:38:14;;;;;;;39.80;29.23;;;;;14.20;100680.00;;;;13041911;22;20167;-73
2022/09/24 14:43:39;;;;;;;41.03;26.57;;;;;14.70;100680.00;;;;13088887;22;20612;-73
2022/09/24 14:48:42;;;;;;;37.13;26.17;;;;;15.00;100676.00;;;;13066593;22;20504;-73
2022/09/24 14:53:44;;;;;;;42.83;27.60;;;;;15.30;100682.00;;;;13042670;22;20741;-73
2022/09/24 14:58:45;;;;;;;40.40;26.97;;;;;15.60;100684.00;;;;13061866;22;20215;-74
2022/09/24 15:03:52;;;;;;;39.63;26.37;;;;;15.30;100677.00;;;;13040679;22;20173;-74
2022/09/24 15:09:06;;;;;;;35.77;26.20;;;;;15.30;100693.00;;;;13041126;22;20199;-74
2022/09/24 15:14:07;;;;;;;32.23;23.07;;;;;15.50;100698.00;;;;13062378;22;20156;-74
2022/09/24 15:19:14;;;;;;;32.10;23.57;;;;;15.60;100696.00;;;;13040579;22;20171;-74
2022/09/24 15:24:16;;;;;;;30.27;22.83;;;;;15.40;100699.00;;;;13086887;22;20914;-74
2022/09/24 15:29:22;;;;;;;33.90;23.38;;;;;15.20;100709.00;;;;13062562;22;20190;-74
2022/09/24 15:34:24;;;;;;;34.00;23.33;;;;;15.30;100715.00;;;;13061734;22;20160;-73
2022/09/24 15:39:27;;;;;;;30.83;21.98;;;;;15.40;100724.00;;;;13114983;22;20606;-73
2022/09/24 15:44:28;;;;;;;32.17;22.20;;;;;15.50;100730.00;;;;13087663;22;20167;-74
2022/09/24 15:49:34;;;;;;;32.73;20.37;;;;;15.20;100726.00;;;;13064906;22;20456;-73
2022/09/24 15:54:35;;;;;;;30.60;20.27;;;;;14.90;100741.00;;;;13041683;22;20163;-74
2022/09/24 15:59:37;;;;;;;27.95;19.75;;;;;15.00;100749.00;;;;13040137;22;20236;-73
2022/09/24 16:04:38;;;;;;;25.42;17.92;;;;;14.90;100749.00;;;;13039812;22;20254;-73
2022/09/24 16:09:39;;;;;;;24.80;17.83;;;;;14.80;100759.00;;;;13040115;22;20693;-73
2022/09/24 16:14:41;;;;;;;20.97;16.33;;;;;14.50;100750.00;;;;13014987;22;20822;-73
2022/09/24 16:19:42;;;;;;;24.37;16.33;;;;;14.20;100763.00;;;;13036935;22;20171;-73
2022/09/24 16:24:43;;;;;;;23.03;16.30;;;;;14.20;100761.00;;;;13088249;22;20853;-73
2022/09/24 16:29:44;;;;;;;22.10;16.70;;;;;14.20;100761.00;;;;13035043;22;20183;-73
2022/09/24 16:34:46;;;;;;;26.37;17.07;;;;;14.10;100769.00;;;;13061351;22;20173;-73
2022/09/24 16:39:47;;;;;;;28.80;15.50;;;;;13.90;100772.00;;;;13086141;22;20163;-73
2022/09/24 16:44:48;;;;;;;22.10;17.20;;;;;13.90;100780.00;;;;13063109;22;20171;-73
2022/09/24 16:49:49;;;;;;;24.00;17.63;;;;;13.80;100784.00;;;;13087225;22;20183;-73
2022/09/24 16:54:50;;;;;;;20.87;15.93;;;;;13.80;100780.00;;;;13091058;22;20731;-73
2022/09/24 16:59:52;;;;;;;27.83;17.73;;;;;13.70;100779.00;;;;13043297;22;20182;-73
2022/09/24 17:04:54;;;;;;;26.73;17.63;;;;;13.60;100781.00;;;;13016203;22;20164;-73
2022/09/24 17:10:14;;;;;;;27.93;18.67;;;;;13.50;100780.00;;;;13041418;22;20757;-73
2022/09/24 17:15:19;;;;;;;29.83;18.30;;;;;13.50;100791.00;;;;13061747;22;20238;-74
2022/09/24 17:20:20;;;;;;;29.13;18.83;;;;;13.40;100801.00;;;;13041835;22;20167;-73
2022/09/24 17:25:21;;;;;;;28.27;18.50;;;;;13.30;100801.00;;;;13063371;22;20163;-73
2022/09/24 17:30:22;;;;;;;27.07;18.17;;;;;13.30;100808.00;;;;13088977;22;20199;-73
2022/09/24 17:35:24;;;;;;;28.60;19.27;;;;;13.20;100807.00;;;;13067700;22;20171;-73
2022/09/24 17:40:25;;;;;;;25.30;18.43;;;;;13.20;100802.00;;;;13040359;22;20171;-74
2022/09/24 17:45:28;;;;;;;28.53;19.23;;;;;13.10;100803.00;;;;13063761;22;20166;-73
2022/09/24 17:50:31;;;;;;;29.97;19.93;;;;;13.10;100815.00;;;;13041436;22;20201;-73
2022/09/24 17:55:32;;;;;;;25.47;18.63;;;;;13.10;100826.00;;;;13064228;22;20163;-73
2022/09/24 18:00:33;;;;;;;30.80;20.33;;;;;13.00;100831.00;;;;13091299;22;20243;-75
2022/09/24 18:05:34;;;;;;;29.70;20.40;;;;;13.00;100825.00;;;;13015457;22;20189;-74
2022/09/24 18:10:36;;;;;;;29.53;21.23;;;;;13.00;100844.00;;;;13041044;22;20200;-74
2022/09/24 18:15:37;;;;;;;33.60;21.20;;;;;13.00;100854.00;;;;13016035;22;20175;-73
2022/09/24 18:20:40;;;;;;;39.27;23.20;;;;;13.00;100852.00;;;;13089254;22;20249;-74
2022/09/24 18:25:42;;;;;;;31.57;23.30;;;;;12.90;100861.00;;;;13114874;22;20159;-73
2022/09/24 18:30:43;;;;;;;34.50;23.97;;;;;12.90;100871.00;;;;13088591;22;20190;-74
2022/09/24 18:35:44;;;;;;;36.30;26.37;;;;;12.90;100882.00;;;;13068891;22;20625;-73
2022/09/24 18:40:46;;;;;;;41.57;26.67;;;;;12.90;100886.00;;;;13067582;22;20167;-74
2022/09/24 18:45:47;;;;;;;37.70;26.40;;;;;12.90;100890.00;;;;13015430;22;20557;-74
2022/09/24 18:50:49;;;;;;;35.40;26.20;;;;;12.90;100892.00;;;;13088016;22;20187;-74
2022/09/24 18:55:51;;;;;;;35.63;25.70;;;;;12.90;100892.00;;;;13062401;22;20265;-74
2022/09/24 19:00:57;;;;;;;40.20;30.27;;;;;12.90;100898.00;;;;13088508;22;20168;-74
2022/09/24 19:06:02;;;;;;;40.27;29.10;;;;;12.90;100911.00;;;;13040341;22;20224;-75
2022/09/24 19:11:08;;;;;;;41.10;31.00;;;;;12.80;100919.00;;;;13060872;22;20270;-74
2022/09/24 19:16:13;;;;;;;35.80;28.30;;;;;12.80;100919.00;;;;13039924;22;20213;-74
2022/09/24 19:21:14;;;;;;;31.03;22.73;;;;;12.80;100932.00;;;;13086203;22;20815;-74
2022/09/24 19:26:22;;;;;;;19.20;15.73;;;;;12.70;100933.00;;;;13062027;22;20205;-74
2022/09/24 19:31:34;;;;;;;21.07;14.67;;;;;12.70;100946.00;;;;13014995;22;20721;-75
2022/09/24 19:36:42;;;;;;;23.03;15.60;;;;;12.60;100953.00;;;;13062232;22;20164;-74
2022/09/24 19:41:46;;;;;;;19.63;15.03;;;;;12.60;100965.00;;;;13067197;22;20632;-74
2022/09/24 19:46:47;;;;;;;22.27;16.13;;;;;12.60;100965.00;;;;13038615;22;20174;-74
2022/09/24 19:51:48;;;;;;;22.80;14.17;;;;;12.60;100962.00;;;;13087531;22;20187;-74
2022/09/24 19:56:49;;;;;;;16.63;13.60;;;;;12.60;100968.00;;;;13039903;22;20163;-74
2022/09/24 20:01:51;;;;;;;14.57;10.27;;;;;12.60;100970.00;;;;13087645;22;20171;-74
2022/09/24 20:06:53;;;;;;;25.10;15.60;;;;;12.60;100977.00;;;;13061627;22;20163;-74
2022/09/24 20:11:54;;;;;;;16.37;12.97;;;;;12.60;100968.00;;;;13064197;22;20289;-74
2022/09/24 20:16:55;;;;;;;15.07;10.77;;;;;12.60;100978.00;;;;13014339;22;20622;-74
2022/09/24 20:21:57;;;;;;;15.40;10.60;;;;;12.50;100981.00;;;;13061914;22;20251;-74
2022/09/24 20:32:18;;;;;;;13.67;8.80;;;;;12.50;100980.00;;;;13068023;22;20278;-74
2022/09/24 20:37:20;;;;;;;10.47;7.00;;;;;12.50;100981.00;;;;13062248;22;20171;-74
2022/09/24 20:42:21;;;;;;;11.87;6.93;;;;;12.50;100980.00;;;;13064935;22;20243;-74
2022/09/24 20:47:22;;;;;;;12.93;6.43;;;;;12.50;100990.00;;;;13042261;22;20171;-74
2022/09/24 20:52:23;;;;;;;9.23;5.87;;;;;12.40;100991.00;;;;13041553;22;20253;-74
2022/09/24 20:57:26;;;;;;;12.50;6.53;;;;;12.40;100986.00;;;;13067826;22;20170;-74
2022/09/24 21:02:27;;;;;;;13.40;7.13;;;;;12.40;100986.00;;;;13089627;22;20232;-74
2022/09/24 21:07:28;;;;;;;10.13;6.57;;;;;12.40;100990.00;;;;13016624;22;20245;-74
2022/09/24 21:12:29;;;;;;;11.50;6.17;;;;;12.40;100978.00;;;;13040112;22;20213;-74
2022/09/24 21:17:30;;;;;;;19.93;7.33;;;;;12.40;100987.00;;;;13017207;22;20171;-74
2022/09/24 21:22:33;;;;;;;16.83;6.13;;;;;12.40;100985.00;;;;13063535;22;20170;-74
2022/09/24 21:27:34;;;;;;;14.23;5.90;;;;;12.40;100995.00;;;;13042931;22;20212;-74
2022/09/24 21:32:37;;;;;;;9.90;6.40;;;;;12.30;100997.00;;;;13042424;22;20194;-74
2022/09/24 21:37:38;;;;;;;13.90;6.17;;;;;12.40;101001.00;;;;13040187;22;20182;-74
2022/09/24 21:42:39;;;;;;;12.80;6.40;;;;;12.30;101007.00;;;;13068707;22;20593;-74
2022/09/24 21:47:40;;;;;;;16.20;7.80;;;;;12.30;101006.00;;;;13017267;22;20610;-74
2022/09/24 21:52:42;;;;;;;16.17;8.10;;;;;12.30;101010.00;;;;13063067;22;20183;-74
2022/09/24 21:57:43;;;;;;;11.33;7.47;;;;;12.30;101009.00;;;;13064066;22;20159;-74
2022/09/24 22:02:44;;;;;;;13.00;8.10;;;;;12.30;101005.00;;;;13067085;22;20191;-74
2022/09/24 22:07:47;;;;;;;15.67;9.20;;;;;12.30;101009.00;;;;13116749;22;20164;-74
2022/09/24 22:12:48;;;;;;;22.90;9.60;;;;;12.30;101000.00;;;;13039164;22;20192;-74
2022/09/24 22:17:50;;;;;;;15.93;9.67;;;;;12.30;101007.00;;;;13067967;22;20174;-74
2022/09/24 22:22:51;;;;;;;15.33;9.33;;;;;12.30;101005.00;;;;13041773;22;20175;-74
2022/09/24 22:27:53;;;;;;;17.77;9.97;;;;;12.30;101005.00;;;;13063557;22;20183;-74
2022/09/24 22:32:54;;;;;;;16.60;9.77;;;;;12.30;101003.00;;;;13063274;22;20638;-74
2022/09/24 22:37:55;;;;;;;19.73;9.27;;;;;12.30;101002.00;;;;13086804;22;20167;-74
2022/09/24 22:42:56;;;;;;;17.33;7.90;;;;;12.20;100999.00;;;;13040901;22;20173;-74
2022/09/24 22:47:58;;;;;;;12.47;7.23;;;;;12.20;101006.00;;;;13042272;22;20476;-74
2022/09/24 22:53:00;;;;;;;13.70;7.23;;;;;12.20;101013.00;;;;13015533;22;20199;-74
2022/09/24 22:58:01;;;;;;;15.90;6.27;;;;;12.10;101011.00;;;;13041659;22;20167;-74
2022/09/24 23:03:03;;;;;;;13.93;6.93;;;;;12.10;101022.00;;;;13016155;22;20178;-74
2022/09/24 23:08:04;;;;;;;13.43;5.93;;;;;12.00;101018.00;;;;13041138;22;20188;-74
2022/09/24 23:13:05;;;;;;;11.67;5.47;;;;;12.00;101017.00;;;;13087357;22;20191;-74
2022/09/24 23:18:06;;;;;;;11.97;5.80;;;;;12.00;101011.00;;;;13088337;22;20187;-74
2022/09/24 23:23:07;;;;;;;14.80;5.57;;;;;12.00;101001.00;;;;13088810;22;20721;-74
2022/09/24 23:28:08;;;;;;;17.83;5.73;;;;;11.90;101008.00;;;;13041063;22;20178;-74
2022/09/24 23:33:09;;;;;;;16.10;5.37;;;;;11.90;101010.00;;;;13066423;22;20191;-74
2022/09/24 23:38:11;;;;;;;12.23;4.97;;;;;11.80;101016.00;;;;13087537;22;20691;-74
2022/09/24 23:43:12;;;;;;;9.03;4.60;;;;;11.80;101020.00;;;;13039801;22;20172;-74
2022/09/24 23:48:14;;;;;;;14.93;5.17;;;;;11.80;101017.00;;;;13062146;22;20244;-74
2022/09/24 23:53:17;;;;;;;11.67;4.40;;;;;11.70;101011.00;;;;13037421;22;20183;-74
2022/09/24 23:58:20;;;;;;;11.17;4.40;;;;;11.70;101022.00;;;;13015771;22;20198;-74
